Kezdőlap
METAR-TAF:

METAR-TAF

Repülőterek :

Batam, Indonézia

földrajzi szélesség: 01-07-15N, földrajzi hosszúság: 104-07-07E, magasság: 38 m

Jelenlegi meteorológiai megfigyelések

A jelentés 44 perccel ezelõtt készült, 03:30 UTC
Délnyugati szél 14 kt
Hőmérséklet 24°C
Páratartalom 94%
Légköri nyomás 1014 hPa
Látótávolság: 8000 m
Szórványos felhőzet 1400 lábon
Borult 6000 lábon
enyhe esõ,

METAR: WIDD 220330Z 23014KT 8000 -RA SCT014 OVC060 24/23 Q1014 NOSIG

Idő: 11:14 (04:14 UTC)

Előrejelzés

A jelentés 5 órával és 14 perccel ezelõtt készült, 23:00 UTC
Az előrejelzés 22-én 00 óra UTC és 22-én 24 óra UTC között érvényes
Nyugat-délnyugati szél 10 kt
Látótávolság: 8000 m
Szórványos felhőzet 1400 lábon

TAF: WIDD 212300Z 2200/2224 25010KT 8000 SCT014

Meteorológiai megfigyelések és előrejelzések több, mint 4000 repülőtéren (METAR és TAF jelentéseket).

A térképen piros és sárga pontok jelzik az elérhető meteorológiai állomásokat.

Mozgassa az egeret a pont fölött, hogy megjelenjen az állomás neve.

Azután kattintson az időjárási megfigyelések és előrejelzések megtekintéséhez.

A térkép megváltoztatása: kattintson a fekete keresztel jelölt zöld gombra ráközelítéshez, a vonallal jelölt zöld gombra távolításhoz, vagy a zöld nyilakra a szomszédos térképek eléréséhez.


METAR-TAF: